createdAt,value
2022-12-11T00:00:42.363Z,51.111244
2022-12-11T00:01:42.513Z,51.111252
2022-12-11T00:02:42.409Z,51.111237
2022-12-11T00:03:43.386Z,51.111233
2022-12-11T00:04:42.357Z,51.111221
2022-12-11T00:05:42.303Z,51.111221
2022-12-11T00:06:42.332Z,51.111240
2022-12-11T00:07:42.407Z,51.111217
2022-12-11T00:08:42.321Z,51.111202
2022-12-11T00:09:42.340Z,51.111237
2022-12-11T00:10:42.543Z,51.111202
2022-12-11T00:11:42.251Z,51.111202
2022-12-11T00:12:42.174Z,51.111191
2022-12-11T00:13:42.259Z,51.111221
2022-12-11T00:14:42.189Z,51.111233
2022-12-11T00:15:42.165Z,51.111259
2022-12-11T00:16:43.529Z,51.111271
2022-12-11T00:17:42.184Z,51.111237
2022-12-11T00:18:42.273Z,51.111233
2022-12-11T00:19:42.263Z,51.111256
2022-12-11T00:20:42.232Z,51.111237
2022-12-11T00:21:42.284Z,51.111229
2022-12-11T00:22:42.302Z,51.111259
2022-12-11T00:23:42.208Z,51.111267
2022-12-11T00:24:42.212Z,51.111282
2022-12-11T00:25:42.225Z,51.111320
2022-12-11T00:26:42.201Z,51.111279
2022-12-11T00:27:42.186Z,51.111248
2022-12-11T00:28:42.122Z,51.111214
2022-12-11T00:29:42.166Z,51.111279
2022-12-11T00:30:42.099Z,51.111267
2022-12-11T00:31:42.162Z,51.111256
2022-12-11T00:32:42.150Z,51.111286
2022-12-11T00:33:42.085Z,51.111271
2022-12-11T00:34:42.175Z,51.111183
2022-12-11T00:35:42.184Z,51.111225
2022-12-11T00:36:42.103Z,51.111221
2022-12-11T00:37:42.229Z,51.111221
2022-12-11T00:38:42.133Z,51.111267
2022-12-11T00:39:42.171Z,51.111317
2022-12-11T00:40:42.106Z,51.111263
2022-12-11T00:41:42.198Z,51.111263
2022-12-11T00:42:42.096Z,51.111244
2022-12-11T00:43:42.126Z,51.111221
2022-12-11T00:44:42.084Z,51.111290
2022-12-11T00:45:42.121Z,51.111279
2022-12-11T00:46:42.066Z,51.111244
2022-12-11T00:47:42.151Z,51.111248
2022-12-11T00:48:42.005Z,51.111176
2022-12-11T00:49:49.392Z,51.111156
2022-12-11T00:50:43.960Z,51.111122
2022-12-11T00:51:41.974Z,51.111279
2022-12-11T00:52:42.072Z,51.111217
2022-12-11T00:53:41.959Z,51.111252
2022-12-11T00:54:41.983Z,51.111259
2022-12-11T00:55:41.935Z,51.111267
2022-12-11T00:56:41.998Z,51.111298
2022-12-11T00:57:42.026Z,51.111313
2022-12-11T00:58:41.983Z,51.111366
2022-12-11T00:59:42.105Z,51.111305
2022-12-11T01:00:42.006Z,51.111252
2022-12-11T01:01:41.983Z,51.111279
2022-12-11T01:02:42.066Z,51.111202
2022-12-11T01:03:41.960Z,51.111263
2022-12-11T01:04:42.029Z,51.111301
2022-12-11T01:05:41.914Z,51.111290
2022-12-11T01:06:41.999Z,51.111221
2022-12-11T01:07:41.925Z,51.111137
2022-12-11T01:08:41.929Z,51.111176
2022-12-11T01:09:41.894Z,51.111176
2022-12-11T01:10:41.897Z,51.111248
2022-12-11T01:11:41.805Z,51.111343
2022-12-11T01:12:41.898Z,51.111336
2022-12-11T01:13:41.897Z,51.111298
2022-12-11T01:14:41.931Z,51.111237
2022-12-11T01:15:42.155Z,51.111294
2022-12-11T01:16:41.954Z,51.111332
2022-12-11T01:17:41.848Z,51.111347
2022-12-11T01:18:41.862Z,51.111305
2022-12-11T01:19:41.881Z,51.111332
2022-12-11T01:20:41.847Z,51.111359
2022-12-11T01:21:41.878Z,51.111301
2022-12-11T01:22:41.839Z,51.111313
2022-12-11T01:23:41.877Z,51.111263
2022-12-11T01:24:41.799Z,51.111408
2022-12-11T01:25:41.792Z,51.111439
2022-12-11T01:26:41.858Z,51.111443
2022-12-11T01:27:41.720Z,51.111317
2022-12-11T01:28:41.717Z,51.111256
2022-12-11T01:29:41.751Z,51.111271
2022-12-11T01:30:41.796Z,51.111252
2022-12-11T01:31:41.894Z,51.111217
2022-12-11T01:32:41.697Z,51.111248
2022-12-11T01:33:41.700Z,51.111286
2022-12-11T01:34:41.672Z,51.111263
2022-12-11T01:35:41.742Z,51.111233
2022-12-11T01:36:41.731Z,51.111252
2022-12-11T01:37:42.761Z,51.111221
2022-12-11T01:38:41.701Z,51.111214
2022-12-11T01:39:41.704Z,51.111248
2022-12-11T01:40:41.740Z,51.111256
2022-12-11T01:41:41.684Z,51.111309
2022-12-11T01:42:41.729Z,51.111271
2022-12-11T01:43:41.676Z,51.111271
2022-12-11T01:44:41.781Z,51.111217
2022-12-11T01:45:41.711Z,51.111229
2022-12-11T01:46:41.662Z,51.111244
2022-12-11T01:47:41.686Z,51.111244
2022-12-11T01:48:42.460Z,51.111259
2022-12-11T01:49:42.648Z,51.111237
2022-12-11T01:50:41.563Z,51.111248
2022-12-11T01:51:41.524Z,51.111221
2022-12-11T01:52:41.575Z,51.111256
2022-12-11T01:53:41.569Z,51.111263
2022-12-11T01:54:41.683Z,51.111279
2022-12-11T01:55:41.601Z,51.111244
2022-12-11T01:56:41.676Z,51.111259
2022-12-11T01:57:41.553Z,51.111237
2022-12-11T01:58:41.679Z,51.111263
2022-12-11T01:59:41.576Z,51.111263
2022-12-11T02:00:41.568Z,51.111259
2022-12-11T02:01:41.611Z,51.111267
2022-12-11T02:02:41.601Z,51.111252
2022-12-11T02:03:41.562Z,51.111259
2022-12-11T02:04:41.603Z,51.111259
2022-12-11T02:05:41.477Z,51.111256
2022-12-11T02:06:41.518Z,51.111240
2022-12-11T02:07:41.559Z,51.111263
2022-12-11T02:08:41.514Z,51.111244
2022-12-11T02:09:41.524Z,51.111252
2022-12-11T02:10:41.420Z,51.111256
2022-12-11T02:11:41.507Z,51.111256
2022-12-11T02:12:41.491Z,51.111244
2022-12-11T02:13:41.510Z,51.111252
2022-12-11T02:14:41.477Z,51.111240
2022-12-11T02:15:41.544Z,51.111237
2022-12-11T02:16:41.444Z,51.111225
2022-12-11T02:17:41.506Z,51.111263
2022-12-11T02:18:41.450Z,51.111225
2022-12-11T02:19:41.450Z,51.111240
2022-12-11T02:20:41.955Z,51.111229
2022-12-11T02:21:41.431Z,51.111240
2022-12-11T02:22:41.427Z,51.111267
2022-12-11T02:23:41.428Z,51.111263
2022-12-11T02:24:41.295Z,51.111271
2022-12-11T02:25:41.306Z,51.111248
2022-12-11T02:26:41.363Z,51.111259
2022-12-11T02:27:41.363Z,51.111294
2022-12-11T02:28:41.301Z,51.111271
2022-12-11T02:29:41.331Z,51.111267
2022-12-11T02:30:41.324Z,51.111282
2022-12-11T02:31:42.380Z,51.111259
2022-12-11T02:32:42.318Z,51.111294
2022-12-11T02:33:41.271Z,51.111286
2022-12-11T02:34:41.374Z,51.111259
2022-12-11T02:35:41.327Z,51.111263
2022-12-11T02:36:41.429Z,51.111282
2022-12-11T02:37:41.342Z,51.111282
2022-12-11T02:38:41.398Z,51.111313
2022-12-11T02:39:41.299Z,51.111324
2022-12-11T02:40:41.370Z,51.111298
2022-12-11T02:41:41.676Z,51.111282
2022-12-11T02:42:41.398Z,51.111286
2022-12-11T02:43:41.271Z,51.111290
2022-12-11T02:44:41.196Z,51.111290
2022-12-11T02:45:41.241Z,51.111305
2022-12-11T02:46:41.239Z,51.111309
2022-12-11T02:47:41.214Z,51.111259
2022-12-11T02:48:41.169Z,51.111279
2022-12-11T02:49:41.189Z,51.111336
2022-12-11T02:50:41.191Z,51.111328
2022-12-11T02:51:41.220Z,51.111301
2022-12-11T02:52:41.268Z,51.111317
2022-12-11T02:53:41.208Z,51.111233
2022-12-11T02:54:41.226Z,51.111267
2022-12-11T02:55:41.194Z,51.111267
2022-12-11T02:56:41.167Z,51.111259
2022-12-11T02:57:41.193Z,51.111271
2022-12-11T02:58:41.213Z,51.111313
2022-12-11T02:59:41.199Z,51.111378
2022-12-11T03:00:41.181Z,51.111340
2022-12-11T03:01:41.198Z,51.111294
2022-12-11T03:02:41.224Z,51.111248
2022-12-11T03:03:41.230Z,51.111301
2022-12-11T03:04:42.071Z,51.111279
2022-12-11T03:05:41.088Z,51.111202
2022-12-11T03:06:41.053Z,51.111221
2022-12-11T03:07:41.013Z,51.111298
2022-12-11T03:08:41.126Z,51.111362
2022-12-11T03:09:41.161Z,51.111370
2022-12-11T03:10:42.107Z,51.111328
2022-12-11T03:11:41.066Z,51.111267
2022-12-11T03:12:41.140Z,51.111248
2022-12-11T03:13:41.058Z,51.111225
2022-12-11T03:14:41.176Z,51.111309
2022-12-11T03:15:41.071Z,51.111286
2022-12-11T03:16:41.140Z,51.111282
2022-12-11T03:17:41.041Z,51.111359
2022-12-11T03:18:41.047Z,51.111237
2022-12-11T03:19:40.978Z,51.111267
2022-12-11T03:20:41.032Z,51.111324
2022-12-11T03:21:40.980Z,51.111412
2022-12-11T03:22:41.047Z,51.111324
2022-12-11T03:23:41.059Z,51.111336
2022-12-11T03:24:40.888Z,51.111320
2022-12-11T03:25:41.535Z,51.111317
2022-12-11T03:26:41.026Z,51.111362
2022-12-11T03:27:41.031Z,51.111359
2022-12-11T03:28:41.003Z,51.111317
2022-12-11T03:29:40.986Z,51.111347
2022-12-11T03:30:41.001Z,51.111366
2022-12-11T03:31:42.000Z,51.111374
2022-12-11T03:32:40.979Z,51.111309
2022-12-11T03:33:40.919Z,51.111347
2022-12-11T03:34:40.939Z,51.111267
2022-12-11T03:35:40.946Z,51.111191
2022-12-11T03:36:40.946Z,51.111237
2022-12-11T03:37:40.948Z,51.111328
2022-12-11T03:38:40.839Z,51.111359
2022-12-11T03:39:40.818Z,51.111362
2022-12-11T03:40:40.957Z,51.111343
2022-12-11T03:41:40.929Z,51.111370
2022-12-11T03:42:40.943Z,51.111362
2022-12-11T03:43:40.877Z,51.111359
2022-12-11T03:44:40.890Z,51.111347
2022-12-11T03:45:40.870Z,51.111378
2022-12-11T03:46:40.840Z,51.111355
2022-12-11T03:47:40.987Z,51.111332
2022-12-11T03:48:40.839Z,51.111324
2022-12-11T03:49:40.876Z,51.111351
2022-12-11T03:50:40.813Z,51.111336
2022-12-11T03:51:40.871Z,51.111332
2022-12-11T03:52:45.599Z,51.111347
2022-12-11T03:53:42.902Z,51.111347
2022-12-11T03:54:40.713Z,51.111343
2022-12-11T03:55:40.719Z,51.111385
2022-12-11T03:56:40.690Z,51.111389
2022-12-11T03:57:41.549Z,51.111389
2022-12-11T03:58:40.702Z,51.111237
2022-12-11T03:59:40.833Z,51.111370
2022-12-11T04:00:40.786Z,51.111347
2022-12-11T04:01:40.869Z,51.111328
2022-12-11T04:02:40.745Z,51.111496
2022-12-11T04:03:40.748Z,51.111279
2022-12-11T04:04:40.814Z,51.111279
2022-12-11T04:05:40.625Z,51.111271
2022-12-11T04:06:40.734Z,51.111309
2022-12-11T04:07:40.755Z,51.111343
2022-12-11T04:08:40.693Z,51.111366
2022-12-11T04:09:40.734Z,51.111378
2022-12-11T04:10:40.798Z,51.111294
2022-12-11T04:11:40.596Z,51.111271
2022-12-11T04:12:40.584Z,51.111267
2022-12-11T04:13:40.593Z,51.111259
2022-12-11T04:14:40.774Z,51.111248
2022-12-11T04:15:40.850Z,51.111248
2022-12-11T04:16:40.713Z,51.111244
2022-12-11T04:17:40.717Z,51.111248
2022-12-11T04:18:40.618Z,51.111263
2022-12-11T04:19:40.604Z,51.111248
2022-12-11T04:20:40.611Z,51.111271
2022-12-11T04:21:40.695Z,51.111279
2022-12-11T04:22:40.612Z,51.111256
2022-12-11T04:23:40.643Z,51.111259
2022-12-11T04:24:40.569Z,51.111263
2022-12-11T04:25:40.519Z,51.111244
2022-12-11T04:26:40.913Z,51.111259
2022-12-11T04:27:40.497Z,51.111221
2022-12-11T04:28:40.589Z,51.111237
2022-12-11T04:29:40.517Z,51.111256
2022-12-11T04:30:40.513Z,51.111275
2022-12-11T04:31:40.511Z,51.111244
2022-12-11T04:32:40.523Z,51.111252
2022-12-11T04:33:40.501Z,51.111240
2022-12-11T04:34:40.511Z,51.111244
2022-12-11T04:35:40.522Z,51.111248
2022-12-11T04:36:40.515Z,51.111259
2022-12-11T04:37:40.686Z,51.111263
2022-12-11T04:38:40.509Z,51.111248
2022-12-11T04:39:40.550Z,51.111256
2022-12-11T04:40:40.498Z,51.111256
2022-12-11T04:41:40.463Z,51.111252
2022-12-11T04:42:40.477Z,51.111259
2022-12-11T04:43:43.005Z,51.111263
2022-12-11T04:44:40.553Z,51.111271
2022-12-11T04:45:41.411Z,51.111221
2022-12-11T04:46:40.467Z,51.111225
2022-12-11T04:47:40.448Z,51.111229
2022-12-11T04:48:40.451Z,51.111233
2022-12-11T04:49:40.467Z,51.111244
2022-12-11T04:50:40.505Z,51.111240
2022-12-11T04:51:40.409Z,51.111248
2022-12-11T04:52:40.378Z,51.111259
2022-12-11T04:53:40.389Z,51.111263
2022-12-11T04:54:40.431Z,51.111244
2022-12-11T04:55:40.410Z,51.111229
2022-12-11T04:56:40.397Z,51.111221
2022-12-11T04:57:40.411Z,51.111233
2022-12-11T04:58:40.410Z,51.111202
2022-12-11T04:59:40.427Z,51.111229
2022-12-11T05:00:40.421Z,51.111237
2022-12-11T05:01:40.299Z,51.111233
2022-12-11T05:02:40.288Z,51.111214
2022-12-11T05:03:40.327Z,51.111206
2022-12-11T05:04:40.244Z,51.111202
2022-12-11T05:05:40.433Z,51.111240
2022-12-11T05:06:40.375Z,51.111240
2022-12-11T05:07:40.277Z,51.111233
2022-12-11T05:08:40.317Z,51.111233
2022-12-11T05:09:40.299Z,51.111221
2022-12-11T05:10:40.290Z,51.111256
2022-12-11T05:11:40.323Z,51.111233
2022-12-11T05:12:40.252Z,51.111233
2022-12-11T05:13:40.288Z,51.111237
2022-12-11T05:14:40.255Z,51.111256
2022-12-11T05:15:40.272Z,51.111248
2022-12-11T05:16:40.307Z,51.111237
2022-12-11T05:17:40.273Z,51.111256
2022-12-11T05:18:40.189Z,51.111259
2022-12-11T05:19:41.164Z,51.111256
2022-12-11T05:20:40.184Z,51.111240
2022-12-11T05:21:40.194Z,51.111259
2022-12-11T05:22:40.240Z,51.111244
2022-12-11T05:23:40.223Z,51.111267
2022-12-11T05:24:40.195Z,51.111290
2022-12-11T05:25:40.228Z,51.111313
2022-12-11T05:26:40.169Z,51.111286
2022-12-11T05:27:40.649Z,51.111244
2022-12-11T05:28:40.152Z,51.111237
2022-12-11T05:29:40.162Z,51.111259
2022-12-11T05:30:40.254Z,51.111279
2022-12-11T05:31:40.216Z,51.111298
2022-12-11T05:32:40.147Z,51.111294
2022-12-11T05:33:40.144Z,51.111282
2022-12-11T05:34:40.072Z,51.111301
2022-12-11T05:35:40.094Z,51.111298
2022-12-11T05:36:40.119Z,51.111301
2022-12-11T05:37:40.069Z,51.111313
2022-12-11T05:38:40.050Z,51.111309
2022-12-11T05:39:40.113Z,51.111301
2022-12-11T05:40:40.072Z,51.111317
2022-12-11T05:41:40.096Z,51.111305
2022-12-11T05:42:40.100Z,51.111290
2022-12-11T05:43:40.109Z,51.111320
2022-12-11T05:44:40.124Z,51.111328
2022-12-11T05:45:40.042Z,51.111343
2022-12-11T05:46:40.149Z,51.111298
2022-12-11T05:47:40.050Z,51.111290
2022-12-11T05:48:40.087Z,51.111305
2022-12-11T05:49:40.180Z,51.111309
2022-12-11T05:50:39.926Z,51.111298
2022-12-11T05:51:39.915Z,51.111294
2022-12-11T05:52:40.035Z,51.111309
2022-12-11T05:53:40.017Z,51.111317
2022-12-11T05:54:40.015Z,51.111340
2022-12-11T05:55:40.006Z,51.111294
2022-12-11T05:56:40.075Z,51.111267
2022-12-11T05:57:39.964Z,51.111290
2022-12-11T05:58:39.990Z,51.111286
2022-12-11T05:59:39.967Z,51.111286
2022-12-11T06:00:39.988Z,51.111244
2022-12-11T06:01:39.988Z,51.111282
2022-12-11T06:02:40.079Z,51.111282
2022-12-11T06:03:39.921Z,51.111290
2022-12-11T06:04:39.926Z,51.111275
2022-12-11T06:05:39.893Z,51.111259
2022-12-11T06:06:39.882Z,51.111263
2022-12-11T06:07:39.815Z,51.111271
2022-12-11T06:08:39.916Z,51.111263
2022-12-11T06:09:39.854Z,51.111282
2022-12-11T06:10:39.820Z,51.111290
2022-12-11T06:11:39.861Z,51.111275
2022-12-11T06:12:39.813Z,51.111286
2022-12-11T06:13:39.838Z,51.111279
2022-12-11T06:14:39.898Z,51.111282
2022-12-11T06:15:39.944Z,51.111286
2022-12-11T06:16:40.236Z,51.111298
2022-12-11T06:17:39.867Z,51.111275
2022-12-11T06:18:40.736Z,51.111279
2022-12-11T06:19:39.826Z,51.111275
2022-12-11T06:20:39.901Z,51.111271
2022-12-11T06:21:39.799Z,51.111294
2022-12-11T06:22:40.880Z,51.111282
2022-12-11T06:23:39.803Z,51.111271
2022-12-11T06:24:39.778Z,51.111248
2022-12-11T06:25:39.713Z,51.111256
2022-12-11T06:26:39.689Z,51.111279
2022-12-11T06:27:39.799Z,51.111298
2022-12-11T06:28:39.728Z,51.111328
2022-12-11T06:29:39.697Z,51.111256
2022-12-11T06:30:39.760Z,51.111301
2022-12-11T06:31:40.755Z,51.111298
2022-12-11T06:32:39.695Z,51.111290
2022-12-11T06:33:39.996Z,51.111275
2022-12-11T06:34:39.760Z,51.111282
2022-12-11T06:35:42.264Z,51.111279
2022-12-11T06:36:40.709Z,51.111271
2022-12-11T06:37:39.702Z,51.111256
2022-12-11T06:38:39.815Z,51.111248
2022-12-11T06:39:39.798Z,51.111282
2022-12-11T06:40:39.742Z,51.111279
2022-12-11T06:41:39.715Z,51.111275
2022-12-11T06:42:39.682Z,51.111290
2022-12-11T06:43:39.708Z,51.111248
2022-12-11T06:44:39.612Z,51.111214
2022-12-11T06:45:39.611Z,51.111252
2022-12-11T06:46:39.635Z,51.111248
2022-12-11T06:47:39.587Z,51.111298
2022-12-11T06:48:39.608Z,51.111267
2022-12-11T06:49:46.772Z,51.111221
2022-12-11T06:50:39.562Z,51.111267
2022-12-11T06:51:39.599Z,51.111275
2022-12-11T06:52:39.695Z,51.111267
2022-12-11T06:53:40.621Z,51.111263
2022-12-11T06:54:39.619Z,51.111271
2022-12-11T06:55:39.641Z,51.111305
2022-12-11T06:56:39.586Z,51.111286
2022-12-11T06:57:39.596Z,51.111271
2022-12-11T06:58:39.593Z,51.111290
2022-12-11T06:59:39.613Z,51.111259
2022-12-11T07:00:39.647Z,51.111298
2022-12-11T07:01:39.610Z,51.111267
2022-12-11T07:02:39.592Z,51.111252
2022-12-11T07:03:40.532Z,51.111221
2022-12-11T07:04:39.518Z,51.111263
2022-12-11T07:05:39.472Z,51.111252
2022-12-11T07:06:39.474Z,51.111259
2022-12-11T07:07:39.489Z,51.111237
2022-12-11T07:08:39.457Z,51.111225
2022-12-11T07:09:39.436Z,51.111259
2022-12-11T07:10:39.431Z,51.111279
2022-12-11T07:11:39.478Z,51.111271
2022-12-11T07:12:39.412Z,51.111328
2022-12-11T07:13:39.482Z,51.111305
2022-12-11T07:14:39.478Z,51.111275
2022-12-11T07:15:40.574Z,51.111214
2022-12-11T07:16:40.575Z,51.111279
2022-12-11T07:17:39.476Z,51.111210
2022-12-11T07:18:39.457Z,51.111248
2022-12-11T07:21:47.370Z,51.111378
2022-12-11T07:22:47.318Z,51.111362
2022-12-11T07:23:47.327Z,51.111305
2022-12-11T07:24:47.312Z,51.111279
2022-12-11T07:25:47.329Z,51.111294
2022-12-11T07:26:47.364Z,51.111374
2022-12-11T07:27:47.263Z,51.111397
2022-12-11T07:28:47.344Z,51.111347
2022-12-11T07:29:47.314Z,51.111324
2022-12-11T07:30:47.247Z,51.111290
2022-12-11T07:31:47.271Z,51.111305
2022-12-11T07:32:47.243Z,51.111313
2022-12-11T07:33:47.173Z,51.111256
2022-12-11T07:34:51.541Z,51.111259
2022-12-11T07:35:48.251Z,51.111286
2022-12-11T07:36:47.247Z,51.111256
2022-12-11T07:37:47.509Z,51.111256
2022-12-11T07:38:47.250Z,51.111275
2022-12-11T07:39:47.288Z,51.111343
2022-12-11T07:40:47.293Z,51.111317
2022-12-11T07:41:47.176Z,51.111301
2022-12-11T07:42:47.198Z,51.111229
2022-12-11T07:43:47.263Z,51.111256
2022-12-11T07:44:47.182Z,51.111256
2022-12-11T07:45:47.249Z,51.111244
2022-12-11T07:46:47.164Z,51.111252
2022-12-11T07:47:47.118Z,51.111244
2022-12-11T07:48:47.114Z,51.111229
2022-12-11T07:49:47.153Z,51.111240
2022-12-11T07:50:47.231Z,51.111259
2022-12-11T07:51:47.165Z,51.111279
2022-12-11T07:52:47.114Z,51.111286
2022-12-11T07:53:47.156Z,51.111244
2022-12-11T07:54:47.102Z,51.111252
2022-12-11T07:55:47.145Z,51.111263
2022-12-11T07:56:51.316Z,51.111252
2022-12-11T07:57:49.118Z,51.111259
2022-12-11T07:58:47.123Z,51.111244
2022-12-11T07:59:47.132Z,51.111259
2022-12-11T08:00:47.190Z,51.111301
2022-12-11T08:01:47.977Z,51.111252
2022-12-11T08:02:47.066Z,51.111301
2022-12-11T08:03:47.047Z,51.111279
2022-12-11T08:04:47.053Z,51.111290
2022-12-11T08:05:46.953Z,51.111286
2022-12-11T08:06:46.967Z,51.111282
2022-12-11T08:07:47.006Z,51.111282
2022-12-11T08:08:47.553Z,51.111294
2022-12-11T08:09:46.942Z,51.111301
2022-12-11T08:10:47.077Z,51.111275
2022-12-11T08:11:46.994Z,51.111267
2022-12-11T08:12:47.001Z,51.111279
2022-12-11T08:13:46.967Z,51.111309
2022-12-11T08:14:46.990Z,51.111271
2022-12-11T08:15:47.023Z,51.111301
2022-12-11T08:16:47.061Z,51.111271
2022-12-11T08:17:46.968Z,51.111317
2022-12-11T08:18:46.971Z,51.111309
2022-12-11T08:19:46.980Z,51.111309
2022-12-11T08:20:46.892Z,51.111305
2022-12-11T08:21:46.951Z,51.111252
2022-12-11T08:22:46.919Z,51.111275
2022-12-11T08:23:46.856Z,51.111256
2022-12-11T08:24:46.864Z,51.111263
2022-12-11T08:25:46.867Z,51.111225
2022-12-11T08:26:46.883Z,51.111263
2022-12-11T08:27:46.958Z,51.111301
2022-12-11T08:28:46.887Z,51.111313
2022-12-11T08:29:46.900Z,51.111275
2022-12-11T08:30:46.949Z,51.111263
2022-12-11T08:31:46.903Z,51.111267
2022-12-11T08:32:46.849Z,51.111294
2022-12-11T08:33:46.924Z,51.111282
2022-12-11T08:34:46.945Z,51.111275
2022-12-11T08:35:46.848Z,51.111259
2022-12-11T08:36:46.824Z,51.111263
2022-12-11T08:37:46.859Z,51.111259
2022-12-11T08:38:46.825Z,51.111256
2022-12-11T08:39:46.787Z,51.111279
2022-12-11T08:40:46.783Z,51.111263
2022-12-11T08:41:46.797Z,51.111317
2022-12-11T08:42:47.260Z,51.111240
2022-12-11T08:43:46.804Z,51.111244
2022-12-11T08:44:46.836Z,51.111244
2022-12-11T08:45:46.898Z,51.111248
2022-12-11T08:46:46.783Z,51.111240
2022-12-11T08:47:46.766Z,51.111252
2022-12-11T08:48:46.824Z,51.111240
2022-12-11T08:49:46.776Z,51.111233
2022-12-11T08:50:46.809Z,51.111259
2022-12-11T08:51:46.740Z,51.111275
2022-12-11T08:52:46.786Z,51.111279
2022-12-11T08:53:46.781Z,51.111275
2022-12-11T08:54:46.741Z,51.111271
2022-12-11T08:55:46.740Z,51.111263
2022-12-11T08:56:46.714Z,51.111279
2022-12-11T08:57:46.628Z,51.111275
2022-12-11T08:58:46.644Z,51.111259
2022-12-11T08:59:46.729Z,51.111259
2022-12-11T09:00:46.708Z,51.111267
2022-12-11T09:01:46.780Z,51.111225
2022-12-11T09:02:46.761Z,51.111259
2022-12-11T09:03:46.659Z,51.111252
2022-12-11T09:04:46.661Z,51.111279
2022-12-11T09:05:46.554Z,51.111256
2022-12-11T09:06:46.636Z,51.111252
2022-12-11T09:07:46.691Z,51.111275
2022-12-11T09:08:51.882Z,51.111267
2022-12-11T09:09:48.678Z,51.111263
2022-12-11T09:10:46.592Z,51.111267
2022-12-11T09:11:46.649Z,51.111263
2022-12-11T09:12:46.595Z,51.111233
2022-12-11T09:13:46.514Z,51.111259
2022-12-11T09:14:46.489Z,51.111256
2022-12-11T09:15:46.753Z,51.111263
2022-12-11T09:16:46.585Z,51.111259
2022-12-11T09:17:46.653Z,51.111237
2022-12-11T09:18:46.540Z,51.111263
2022-12-11T09:19:46.561Z,51.111256
2022-12-11T09:20:46.593Z,51.111259
2022-12-11T09:21:46.654Z,51.111244
2022-12-11T09:22:46.501Z,51.111259
2022-12-11T09:23:46.542Z,51.111263
2022-12-11T09:24:46.515Z,51.111271
2022-12-11T09:25:46.502Z,51.111267
2022-12-11T09:26:46.561Z,51.111271
2022-12-11T09:27:46.503Z,51.111271
2022-12-11T09:28:47.261Z,51.111286
2022-12-11T09:29:47.472Z,51.111294
2022-12-11T09:30:46.515Z,51.111244
2022-12-11T09:31:46.418Z,51.111256
2022-12-11T09:32:46.473Z,51.111256
2022-12-11T09:33:46.463Z,51.111282
2022-12-11T09:34:46.481Z,51.111271
2022-12-11T09:35:46.449Z,51.111279
2022-12-11T09:36:47.514Z,51.111259
2022-12-11T09:37:46.457Z,51.111259
2022-12-11T09:38:46.515Z,51.111259
2022-12-11T09:39:46.415Z,51.111252
2022-12-11T09:40:46.508Z,51.111263
2022-12-11T09:41:46.421Z,51.111279
2022-12-11T09:42:46.470Z,51.111252
2022-12-11T09:43:46.383Z,51.111267
2022-12-11T09:44:46.327Z,51.111271
2022-12-11T09:45:46.419Z,51.111263
2022-12-11T09:46:46.349Z,51.111275
2022-12-11T09:47:46.770Z,51.111279
2022-12-11T09:48:46.360Z,51.111282
2022-12-11T09:49:46.379Z,51.111279
2022-12-11T09:50:46.439Z,51.111271
2022-12-11T09:51:46.344Z,51.111256
2022-12-11T09:52:46.467Z,51.111256
2022-12-11T09:53:46.370Z,51.111271
2022-12-11T09:54:46.401Z,51.111275
2022-12-11T09:55:46.347Z,51.111259
2022-12-11T09:56:46.302Z,51.111271
2022-12-11T09:57:46.367Z,51.111275
2022-12-11T09:58:46.378Z,51.111267
2022-12-11T09:59:46.381Z,51.111279
2022-12-11T10:00:46.296Z,51.111286
2022-12-11T10:01:46.367Z,51.111286
2022-12-11T10:02:46.396Z,51.111271
2022-12-11T10:03:46.447Z,51.111286
2022-12-11T10:04:46.228Z,51.111294
2022-12-11T10:05:46.204Z,51.111282
2022-12-11T10:06:46.219Z,51.111275
2022-12-11T10:07:46.203Z,51.111267
2022-12-11T10:08:46.166Z,51.111252
2022-12-11T10:09:46.185Z,51.111271
2022-12-11T10:10:46.179Z,51.111286
2022-12-11T10:11:50.360Z,51.111271
2022-12-11T10:12:47.144Z,51.111275
2022-12-11T10:13:46.106Z,51.111275
2022-12-11T10:14:46.223Z,51.111267
2022-12-11T10:15:46.262Z,51.111256
2022-12-11T10:16:46.327Z,51.111298
2022-12-11T10:17:46.167Z,51.111279
2022-12-11T10:18:46.214Z,51.111298
2022-12-11T10:19:46.178Z,51.111309
2022-12-11T10:20:46.287Z,51.111298
2022-12-11T10:21:46.155Z,51.111332
2022-12-11T10:22:46.187Z,51.111286
2022-12-11T10:23:46.140Z,51.111267
2022-12-11T10:25:15.363Z,51.111271
2022-12-11T10:25:48.121Z,51.111290
2022-12-11T10:26:46.067Z,51.111263
2022-12-11T10:27:46.039Z,51.111252
2022-12-11T10:28:46.199Z,51.111248
2022-12-11T10:29:46.108Z,51.111320
2022-12-11T10:30:46.064Z,51.111305
2022-12-11T10:31:46.170Z,51.111294
2022-12-11T10:32:46.146Z,51.111275
2022-12-11T10:33:46.198Z,51.111271
2022-12-11T10:34:46.160Z,51.111256
2022-12-11T10:35:46.199Z,51.111263
2022-12-11T10:36:46.098Z,51.111256
2022-12-11T10:37:46.044Z,51.111294
2022-12-11T10:38:46.045Z,51.111282
2022-12-11T10:39:46.123Z,51.111305
2022-12-11T10:40:46.031Z,51.111286
2022-12-11T10:41:46.146Z,51.111271
2022-12-11T10:42:46.023Z,51.111244
2022-12-11T10:43:46.010Z,51.111225
2022-12-11T10:44:45.925Z,51.111256
2022-12-11T10:45:45.910Z,51.111248
2022-12-11T10:46:46.008Z,51.111191
2022-12-11T10:47:45.952Z,51.111259
2022-12-11T10:48:45.877Z,51.111244
2022-12-11T10:49:45.901Z,51.111237
2022-12-11T10:50:45.875Z,51.111229
2022-12-11T10:51:45.922Z,51.111240
2022-12-11T10:52:46.216Z,51.111240
2022-12-11T10:53:45.955Z,51.111153
2022-12-11T10:54:45.923Z,51.111214
2022-12-11T10:55:45.883Z,51.111221
2022-12-11T10:56:45.940Z,51.111210
2022-12-11T10:57:45.948Z,51.111214
2022-12-11T10:58:45.925Z,51.111225
2022-12-11T10:59:45.882Z,51.111225
2022-12-11T11:00:45.961Z,51.111290
2022-12-11T11:01:45.907Z,51.111271
2022-12-11T11:02:45.906Z,51.111279
2022-12-11T11:03:45.909Z,51.111263
2022-12-11T11:04:45.857Z,51.111275
2022-12-11T11:05:49.369Z,51.111275
2022-12-11T11:06:46.908Z,51.111233
2022-12-11T11:07:45.849Z,51.111271
2022-12-11T11:08:45.740Z,51.111259
2022-12-11T11:09:45.784Z,51.111259
2022-12-11T11:10:45.875Z,51.111229
2022-12-11T11:11:45.814Z,51.111256
2022-12-11T11:12:45.805Z,51.111229
2022-12-11T11:13:45.870Z,51.111233
2022-12-11T11:14:45.888Z,51.111237
2022-12-11T11:15:45.872Z,51.111252
2022-12-11T11:16:45.862Z,51.111240
2022-12-11T11:17:54.231Z,51.111237
2022-12-11T11:18:47.881Z,51.111267
2022-12-11T11:19:45.745Z,51.111259
2022-12-11T11:20:45.785Z,51.111237
2022-12-11T11:21:45.664Z,51.111252
2022-12-11T11:22:45.660Z,51.111271
2022-12-11T11:23:50.542Z,51.111256
2022-12-11T11:24:47.784Z,51.111271
2022-12-11T11:25:45.741Z,51.111271
2022-12-11T11:27:12.317Z,51.111279